sensor_id;sensor_type;location;lat;lon;timestamp;temperature;humidity
8563;DHT22;16392;52.508;13.468;2022-11-02T00:02:18;10.40;99.90
8563;DHT22;16392;52.508;13.468;2022-11-02T00:04:45;10.40;99.90
8563;DHT22;16392;52.508;13.468;2022-11-02T00:07:11;10.40;99.90
8563;DHT22;16392;52.508;13.468;2022-11-02T00:09:38;10.30;99.90
8563;DHT22;16392;52.508;13.468;2022-11-02T00:12:06;10.30;99.90
8563;DHT22;16392;52.508;13.468;2022-11-02T00:14:32;10.20;99.90
8563;DHT22;16392;52.508;13.468;2022-11-02T00:16:59;10.20;99.90
8563;DHT22;16392;52.508;13.468;2022-11-02T00:19:28;10.20;99.90
8563;DHT22;16392;52.508;13.468;2022-11-02T00:21:55;10.20;99.90
8563;DHT22;16392;52.508;13.468;2022-11-02T00:24:23;10.20;99.90
8563;DHT22;16392;52.508;13.468;2022-11-02T00:26:49;10.20;99.90
8563;DHT22;16392;52.508;13.468;2022-11-02T00:29:16;10.20;99.90
8563;DHT22;16392;52.508;13.468;2022-11-02T00:31:43;10.20;99.90
8563;DHT22;16392;52.508;13.468;2022-11-02T00:34:09;10.10;99.90
8563;DHT22;16392;52.508;13.468;2022-11-02T00:36:37;10.10;99.90
8563;DHT22;16392;52.508;13.468;2022-11-02T00:39:04;10.10;99.90
8563;DHT22;16392;52.508;13.468;2022-11-02T00:41:31;10.10;99.90
8563;DHT22;16392;52.508;13.468;2022-11-02T00:43:58;10.10;99.90
8563;DHT22;16392;52.508;13.468;2022-11-02T00:46:24;10.10;99.90
8563;DHT22;16392;52.508;13.468;2022-11-02T00:48:51;10.10;99.90
8563;DHT22;16392;52.508;13.468;2022-11-02T00:51:18;10.00;99.90
8563;DHT22;16392;52.508;13.468;2022-11-02T00:53:47;10.00;99.90
8563;DHT22;16392;52.508;13.468;2022-11-02T00:56:14;10.00;99.90
8563;DHT22;16392;52.508;13.468;2022-11-02T00:58:40;10.00;99.90
8563;DHT22;16392;52.508;13.468;2022-11-02T01:01:07;9.90;99.90
8563;DHT22;16392;52.508;13.468;2022-11-02T01:03:34;9.90;99.90
8563;DHT22;16392;52.508;13.468;2022-11-02T01:06:07;9.90;99.90
8563;DHT22;16392;52.508;13.468;2022-11-02T01:08:33;9.80;99.90
8563;DHT22;16392;52.508;13.468;2022-11-02T01:11:10;9.80;99.90
8563;DHT22;16392;52.508;13.468;2022-11-02T01:13:37;9.90;99.90
8563;DHT22;16392;52.508;13.468;2022-11-02T01:16:04;9.90;99.90
8563;DHT22;16392;52.508;13.468;2022-11-02T01:18:30;9.90;99.90
8563;DHT22;16392;52.508;13.468;2022-11-02T01:20:57;9.90;99.90
8563;DHT22;16392;52.508;13.468;2022-11-02T01:23:24;9.80;99.90
8563;DHT22;16392;52.508;13.468;2022-11-02T01:25:51;9.70;99.90
8563;DHT22;16392;52.508;13.468;2022-11-02T01:28:19;9.70;99.90
8563;DHT22;16392;52.508;13.468;2022-11-02T01:30:46;9.70;99.90
8563;DHT22;16392;52.508;13.468;2022-11-02T01:33:13;9.60;99.90
8563;DHT22;16392;52.508;13.468;2022-11-02T01:35:39;9.70;99.90
8563;DHT22;16392;52.508;13.468;2022-11-02T01:38:07;9.60;99.90
8563;DHT22;16392;52.508;13.468;2022-11-02T01:40:34;9.60;99.90
8563;DHT22;16392;52.508;13.468;2022-11-02T01:43:21;9.50;99.90
8563;DHT22;16392;52.508;13.468;2022-11-02T01:45:50;9.50;99.90
8563;DHT22;16392;52.508;13.468;2022-11-02T01:48:20;9.40;99.90
8563;DHT22;16392;52.508;13.468;2022-11-02T01:50:52;9.40;99.90
8563;DHT22;16392;52.508;13.468;2022-11-02T01:53:20;9.40;99.90
8563;DHT22;16392;52.508;13.468;2022-11-02T01:55:49;9.50;99.90
8563;DHT22;16392;52.508;13.468;2022-11-02T01:58:17;9.50;99.90
8563;DHT22;16392;52.508;13.468;2022-11-02T02:00:45;9.50;99.90
8563;DHT22;16392;52.508;13.468;2022-11-02T02:03:14;9.40;99.90
8563;DHT22;16392;52.508;13.468;2022-11-02T02:05:45;9.40;99.90
8563;DHT22;16392;52.508;13.468;2022-11-02T02:08:15;9.40;99.90
8563;DHT22;16392;52.508;13.468;2022-11-02T02:10:43;9.30;99.90
8563;DHT22;16392;52.508;13.468;2022-11-02T02:13:10;9.40;99.90
8563;DHT22;16392;52.508;13.468;2022-11-02T02:15:42;9.30;99.90
8563;DHT22;16392;52.508;13.468;2022-11-02T02:18:18;9.30;99.90
8563;DHT22;16392;52.508;13.468;2022-11-02T02:21:09;9.30;99.90
8563;DHT22;16392;52.508;13.468;2022-11-02T02:26:47;9.30;99.90
8563;DHT22;16392;52.508;13.468;2022-11-02T02:29:21;9.30;99.90
8563;DHT22;16392;52.508;13.468;2022-11-02T02:31:55;9.20;99.90
8563;DHT22;16392;52.508;13.468;2022-11-02T02:34:27;9.20;99.90
8563;DHT22;16392;52.508;13.468;2022-11-02T02:37:04;9.20;99.90
8563;DHT22;16392;52.508;13.468;2022-11-02T02:39:36;9.20;99.90
8563;DHT22;16392;52.508;13.468;2022-11-02T02:42:11;9.10;99.90
8563;DHT22;16392;52.508;13.468;2022-11-02T02:44:44;9.10;99.90
8563;DHT22;16392;52.508;13.468;2022-11-02T02:47:13;9.00;99.90
8563;DHT22;16392;52.508;13.468;2022-11-02T02:49:44;9.00;99.90
8563;DHT22;16392;52.508;13.468;2022-11-02T02:52:14;9.00;99.90
8563;DHT22;16392;52.508;13.468;2022-11-02T02:54:45;9.00;99.90
8563;DHT22;16392;52.508;13.468;2022-11-02T02:57:16;9.00;99.90
8563;DHT22;16392;52.508;13.468;2022-11-02T02:59:47;9.10;99.90
8563;DHT22;16392;52.508;13.468;2022-11-02T03:02:16;9.00;99.90
8563;DHT22;16392;52.508;13.468;2022-11-02T03:04:46;9.00;99.90
8563;DHT22;16392;52.508;13.468;2022-11-02T03:07:15;8.90;99.90
8563;DHT22;16392;52.508;13.468;2022-11-02T03:09:46;8.90;99.90
8563;DHT22;16392;52.508;13.468;2022-11-02T03:12:21;8.90;99.90
8563;DHT22;16392;52.508;13.468;2022-11-02T03:15:04;8.90;99.90
8563;DHT22;16392;52.508;13.468;2022-11-02T03:17:44;8.90;99.90
8563;DHT22;16392;52.508;13.468;2022-11-02T03:20:19;8.90;99.90
8563;DHT22;16392;52.508;13.468;2022-11-02T03:22:54;8.90;99.90
8563;DHT22;16392;52.508;13.468;2022-11-02T03:25:28;8.80;99.90
8563;DHT22;16392;52.508;13.468;2022-11-02T03:28:00;8.80;99.90
8563;DHT22;16392;52.508;13.468;2022-11-02T03:30:39;8.70;99.90
8563;DHT22;16392;52.508;13.468;2022-11-02T03:33:13;8.70;99.90
8563;DHT22;16392;52.508;13.468;2022-11-02T03:35:46;8.70;99.90
8563;DHT22;16392;52.508;13.468;2022-11-02T03:38:20;8.70;99.90
8563;DHT22;16392;52.508;13.468;2022-11-02T03:40:49;8.70;99.90
8563;DHT22;16392;52.508;13.468;2022-11-02T03:43:17;8.70;99.90
8563;DHT22;16392;52.508;13.468;2022-11-02T03:45:50;8.70;99.90
8563;DHT22;16392;52.508;13.468;2022-11-02T03:48:19;8.80;99.90
8563;DHT22;16392;52.508;13.468;2022-11-02T03:50:49;8.70;99.90
8563;DHT22;16392;52.508;13.468;2022-11-02T03:53:20;8.70;99.90
8563;DHT22;16392;52.508;13.468;2022-11-02T03:55:51;8.70;99.90
8563;DHT22;16392;52.508;13.468;2022-11-02T03:58:18;8.70;99.90
8563;DHT22;16392;52.508;13.468;2022-11-02T04:00:49;8.70;99.90
8563;DHT22;16392;52.508;13.468;2022-11-02T04:03:17;8.70;99.90
8563;DHT22;16392;52.508;13.468;2022-11-02T04:05:45;8.70;99.90
8563;DHT22;16392;52.508;13.468;2022-11-02T04:08:14;8.70;99.90
8563;DHT22;16392;52.508;13.468;2022-11-02T04:10:49;8.70;99.90
8563;DHT22;16392;52.508;13.468;2022-11-02T04:13:35;8.70;99.90
8563;DHT22;16392;52.508;13.468;2022-11-02T04:16:21;8.70;99.90
8563;DHT22;16392;52.508;13.468;2022-11-02T04:18:48;8.70;99.90
8563;DHT22;16392;52.508;13.468;2022-11-02T04:21:32;8.70;99.90
8563;DHT22;16392;52.508;13.468;2022-11-02T04:23:59;8.70;99.90
8563;DHT22;16392;52.508;13.468;2022-11-02T04:26:43;8.70;99.90
8563;DHT22;16392;52.508;13.468;2022-11-02T04:29:10;8.70;99.90
8563;DHT22;16392;52.508;13.468;2022-11-02T04:31:38;8.70;99.90
8563;DHT22;16392;52.508;13.468;2022-11-02T04:34:04;8.70;99.90
8563;DHT22;16392;52.508;13.468;2022-11-02T04:36:31;8.70;99.90
8563;DHT22;16392;52.508;13.468;2022-11-02T04:38:58;8.70;99.90
8563;DHT22;16392;52.508;13.468;2022-11-02T04:41:23;8.70;99.90
8563;DHT22;16392;52.508;13.468;2022-11-02T04:44:09;8.60;99.90
8563;DHT22;16392;52.508;13.468;2022-11-02T04:46:41;8.60;99.90
8563;DHT22;16392;52.508;13.468;2022-11-02T04:49:09;8.60;99.90
8563;DHT22;16392;52.508;13.468;2022-11-02T04:51:36;8.50;99.90
8563;DHT22;16392;52.508;13.468;2022-11-02T04:54:04;8.50;99.90
8563;DHT22;16392;52.508;13.468;2022-11-02T04:56:31;8.40;99.90
8563;DHT22;16392;52.508;13.468;2022-11-02T04:58:59;8.30;99.90
8563;DHT22;16392;52.508;13.468;2022-11-02T05:01:27;8.30;99.90
8563;DHT22;16392;52.508;13.468;2022-11-02T05:03:56;8.30;99.90
8563;DHT22;16392;52.508;13.468;2022-11-02T05:06:23;8.30;99.90
8563;DHT22;16392;52.508;13.468;2022-11-02T05:08:50;8.30;99.90
8563;DHT22;16392;52.508;13.468;2022-11-02T05:11:17;8.30;99.90
8563;DHT22;16392;52.508;13.468;2022-11-02T05:13:44;8.30;99.90
8563;DHT22;16392;52.508;13.468;2022-11-02T05:16:12;8.30;99.90
8563;DHT22;16392;52.508;13.468;2022-11-02T05:18:39;8.40;99.90
8563;DHT22;16392;52.508;13.468;2022-11-02T05:21:08;8.40;99.90
8563;DHT22;16392;52.508;13.468;2022-11-02T05:23:35;8.40;99.90
8563;DHT22;16392;52.508;13.468;2022-11-02T05:26:05;8.30;99.90
8563;DHT22;16392;52.508;13.468;2022-11-02T05:28:32;8.20;99.90
8563;DHT22;16392;52.508;13.468;2022-11-02T05:31:00;8.30;99.90
8563;DHT22;16392;52.508;13.468;2022-11-02T05:33:28;8.50;99.90
8563;DHT22;16392;52.508;13.468;2022-11-02T05:35:56;8.50;99.90
8563;DHT22;16392;52.508;13.468;2022-11-02T05:38:25;8.40;99.90
8563;DHT22;16392;52.508;13.468;2022-11-02T05:40:51;8.50;99.90
8563;DHT22;16392;52.508;13.468;2022-11-02T05:43:18;8.50;99.90
8563;DHT22;16392;52.508;13.468;2022-11-02T05:45:50;8.60;99.90
8563;DHT22;16392;52.508;13.468;2022-11-02T05:48:17;8.60;99.90
8563;DHT22;16392;52.508;13.468;2022-11-02T05:50:44;8.60;99.90
8563;DHT22;16392;52.508;13.468;2022-11-02T05:53:10;8.60;99.90
8563;DHT22;16392;52.508;13.468;2022-11-02T05:55:38;8.50;99.90
8563;DHT22;16392;52.508;13.468;2022-11-02T05:58:05;8.50;99.90
8563;DHT22;16392;52.508;13.468;2022-11-02T06:00:31;8.60;99.90
8563;DHT22;16392;52.508;13.468;2022-11-02T06:02:58;8.60;99.90
8563;DHT22;16392;52.508;13.468;2022-11-02T06:05:25;8.50;99.90
8563;DHT22;16392;52.508;13.468;2022-11-02T06:07:52;8.40;99.90
8563;DHT22;16392;52.508;13.468;2022-11-02T06:10:18;8.50;99.90
8563;DHT22;16392;52.508;13.468;2022-11-02T06:12:46;8.50;99.90
8563;DHT22;16392;52.508;13.468;2022-11-02T06:15:19;8.50;99.90
8563;DHT22;16392;52.508;13.468;2022-11-02T06:17:45;8.50;99.90
8563;DHT22;16392;52.508;13.468;2022-11-02T06:20:12;8.50;99.90
8563;DHT22;16392;52.508;13.468;2022-11-02T06:22:40;8.60;99.90
8563;DHT22;16392;52.508;13.468;2022-11-02T06:25:08;8.70;99.90
8563;DHT22;16392;52.508;13.468;2022-11-02T06:27:35;8.70;99.90
8563;DHT22;16392;52.508;13.468;2022-11-02T06:30:04;8.70;99.90
8563;DHT22;16392;52.508;13.468;2022-11-02T06:32:31;8.80;99.90
8563;DHT22;16392;52.508;13.468;2022-11-02T06:34:58;9.00;99.90
8563;DHT22;16392;52.508;13.468;2022-11-02T06:37:24;9.30;99.90
8563;DHT22;16392;52.508;13.468;2022-11-02T06:39:52;9.60;99.90
8563;DHT22;16392;52.508;13.468;2022-11-02T06:42:19;9.80;99.90
8563;DHT22;16392;52.508;13.468;2022-11-02T06:44:46;10.00;99.90
8563;DHT22;16392;52.508;13.468;2022-11-02T06:47:14;10.10;99.90
8563;DHT22;16392;52.508;13.468;2022-11-02T06:49:41;10.30;99.90
8563;DHT22;16392;52.508;13.468;2022-11-02T06:52:08;10.40;99.90
8563;DHT22;16392;52.508;13.468;2022-11-02T06:54:35;10.60;99.90
8563;DHT22;16392;52.508;13.468;2022-11-02T06:57:01;10.70;99.90
8563;DHT22;16392;52.508;13.468;2022-11-02T06:59:29;10.50;99.90
8563;DHT22;16392;52.508;13.468;2022-11-02T07:01:56;10.50;99.90
8563;DHT22;16392;52.508;13.468;2022-11-02T07:04:24;10.70;99.90
8563;DHT22;16392;52.508;13.468;2022-11-02T07:06:51;10.70;99.90
8563;DHT22;16392;52.508;13.468;2022-11-02T07:09:17;10.70;99.90
8563;DHT22;16392;52.508;13.468;2022-11-02T07:11:44;10.80;99.90
8563;DHT22;16392;52.508;13.468;2022-11-02T07:14:11;11.20;99.90
8563;DHT22;16392;52.508;13.468;2022-11-02T07:16:37;11.40;99.90
8563;DHT22;16392;52.508;13.468;2022-11-02T07:19:04;11.30;99.90
8563;DHT22;16392;52.508;13.468;2022-11-02T07:21:32;11.10;99.90
8563;DHT22;16392;52.508;13.468;2022-11-02T07:23:58;10.80;99.90
8563;DHT22;16392;52.508;13.468;2022-11-02T07:26:25;10.60;99.90
8563;DHT22;16392;52.508;13.468;2022-11-02T07:28:52;11.00;99.90
8563;DHT22;16392;52.508;13.468;2022-11-02T07:31:19;11.40;99.90
8563;DHT22;16392;52.508;13.468;2022-11-02T07:33:45;11.80;99.90
8563;DHT22;16392;52.508;13.468;2022-11-02T07:36:12;12.20;99.90
8563;DHT22;16392;52.508;13.468;2022-11-02T07:38:40;12.60;19.80
8563;DHT22;16392;52.508;13.468;2022-11-02T07:41:08;12.60;28.80
8563;DHT22;16392;52.508;13.468;2022-11-02T07:43:35;12.90;1.00
8563;DHT22;16392;52.508;13.468;2022-11-02T07:46:03;13.00;1.00
8563;DHT22;16392;52.508;13.468;2022-11-02T07:48:30;13.10;1.00
8563;DHT22;16392;52.508;13.468;2022-11-02T07:50:58;13.30;1.00
8563;DHT22;16392;52.508;13.468;2022-11-02T07:53:25;13.30;1.00
8563;DHT22;16392;52.508;13.468;2022-11-02T07:55:53;13.30;1.00
8563;DHT22;16392;52.508;13.468;2022-11-02T07:58:20;13.70;1.00
8563;DHT22;16392;52.508;13.468;2022-11-02T08:00:47;14.10;1.00
8563;DHT22;16392;52.508;13.468;2022-11-02T08:03:13;14.10;1.00
8563;DHT22;16392;52.508;13.468;2022-11-02T08:05:41;14.50;1.00
8563;DHT22;16392;52.508;13.468;2022-11-02T08:08:11;14.90;99.90
8563;DHT22;16392;52.508;13.468;2022-11-02T08:10:39;15.10;1.00
8563;DHT22;16392;52.508;13.468;2022-11-02T08:13:09;15.30;1.00
8563;DHT22;16392;52.508;13.468;2022-11-02T08:15:36;14.90;1.00
8563;DHT22;16392;52.508;13.468;2022-11-02T08:18:05;14.70;1.00
8563;DHT22;16392;52.508;13.468;2022-11-02T08:20:34;14.30;99.90
8563;DHT22;16392;52.508;13.468;2022-11-02T08:23:01;14.70;99.90
8563;DHT22;16392;52.508;13.468;2022-11-02T08:25:28;14.40;99.90
8563;DHT22;16392;52.508;13.468;2022-11-02T08:27:55;13.90;99.90
8563;DHT22;16392;52.508;13.468;2022-11-02T08:30:26;13.50;1.00
8563;DHT22;16392;52.508;13.468;2022-11-02T08:32:53;13.20;1.00
8563;DHT22;16392;52.508;13.468;2022-11-02T08:35:20;13.20;1.00
8563;DHT22;16392;52.508;13.468;2022-11-02T08:37:52;13.20;1.00
8563;DHT22;16392;52.508;13.468;2022-11-02T08:40:20;13.00;1.00
8563;DHT22;16392;52.508;13.468;2022-11-02T08:42:46;13.00;1.00
8563;DHT22;16392;52.508;13.468;2022-11-02T08:45:13;13.10;1.00
8563;DHT22;16392;52.508;13.468;2022-11-02T08:47:43;13.10;1.00
8563;DHT22;16392;52.508;13.468;2022-11-02T08:50:10;12.80;1.00
8563;DHT22;16392;52.508;13.468;2022-11-02T08:52:37;12.70;38.60
8563;DHT22;16392;52.508;13.468;2022-11-02T08:55:04;12.50;80.50
8563;DHT22;16392;52.508;13.468;2022-11-02T08:57:31;12.40;95.60
8563;DHT22;16392;52.508;13.468;2022-11-02T08:59:58;12.40;99.90
8563;DHT22;16392;52.508;13.468;2022-11-02T09:02:25;12.30;99.90
8563;DHT22;16392;52.508;13.468;2022-11-02T09:04:53;12.30;99.90
8563;DHT22;16392;52.508;13.468;2022-11-02T09:07:19;12.30;99.90
8563;DHT22;16392;52.508;13.468;2022-11-02T09:09:46;12.30;99.90
8563;DHT22;16392;52.508;13.468;2022-11-02T09:12:12;12.30;99.90
8563;DHT22;16392;52.508;13.468;2022-11-02T09:14:39;12.40;99.90
8563;DHT22;16392;52.508;13.468;2022-11-02T09:17:06;12.60;99.90
8563;DHT22;16392;52.508;13.468;2022-11-02T09:19:32;13.00;99.90
8563;DHT22;16392;52.508;13.468;2022-11-02T09:22:00;13.50;1.00
8563;DHT22;16392;52.508;13.468;2022-11-02T09:24:27;13.90;1.00
8563;DHT22;16392;52.508;13.468;2022-11-02T09:26:54;14.20;1.00
8563;DHT22;16392;52.508;13.468;2022-11-02T09:29:20;14.60;1.00
8563;DHT22;16392;52.508;13.468;2022-11-02T09:31:47;14.70;1.00
8563;DHT22;16392;52.508;13.468;2022-11-02T09:34:14;15.10;99.90
8563;DHT22;16392;52.508;13.468;2022-11-02T09:36:41;15.40;1.00
8563;DHT22;16392;52.508;13.468;2022-11-02T09:39:09;15.50;1.00
8563;DHT22;16392;52.508;13.468;2022-11-02T09:41:40;15.90;1.00
8563;DHT22;16392;52.508;13.468;2022-11-02T09:44:11;15.80;99.90
8563;DHT22;16392;52.508;13.468;2022-11-02T09:46:43;16.20;99.90
8563;DHT22;16392;52.508;13.468;2022-11-02T09:49:13;16.50;99.90
8563;DHT22;16392;52.508;13.468;2022-11-02T09:51:43;16.90;1.00
8563;DHT22;16392;52.508;13.468;2022-11-02T09:54:16;16.90;1.00
8563;DHT22;16392;52.508;13.468;2022-11-02T09:56:46;16.80;1.00
8563;DHT22;16392;52.508;13.468;2022-11-02T09:59:15;17.10;1.00
8563;DHT22;16392;52.508;13.468;2022-11-02T10:01:51;17.30;1.00
8563;DHT22;16392;52.508;13.468;2022-11-02T10:04:43;17.70;56.60
8563;DHT22;16392;52.508;13.468;2022-11-02T10:07:20;17.70;1.00
8563;DHT22;16392;52.508;13.468;2022-11-02T10:09:55;17.90;99.90
8563;DHT22;16392;52.508;13.468;2022-11-02T10:12:29;17.50;99.90
8563;DHT22;16392;52.508;13.468;2022-11-02T10:15:04;17.30;99.90
8563;DHT22;16392;52.508;13.468;2022-11-02T10:17:35;17.50;99.90
8563;DHT22;16392;52.508;13.468;2022-11-02T10:20:06;17.80;1.00
8563;DHT22;16392;52.508;13.468;2022-11-02T10:22:39;18.20;99.90
8563;DHT22;16392;52.508;13.468;2022-11-02T10:25:14;18.60;1.00
8563;DHT22;16392;52.508;13.468;2022-11-02T10:27:44;18.60;99.90
8563;DHT22;16392;52.508;13.468;2022-11-02T10:30:14;18.40;97.60
8563;DHT22;16392;52.508;13.468;2022-11-02T10:32:41;18.20;99.90
8563;DHT22;16392;52.508;13.468;2022-11-02T10:35:18;18.30;94.20
8563;DHT22;16392;52.508;13.468;2022-11-02T10:38:05;18.10;1.00
8563;DHT22;16392;52.508;13.468;2022-11-02T10:40:46;18.30;1.00
8563;DHT22;16392;52.508;13.468;2022-11-02T10:43:27;17.90;95.20
8563;DHT22;16392;52.508;13.468;2022-11-02T10:46:10;17.90;99.90
8563;DHT22;16392;52.508;13.468;2022-11-02T10:48:45;18.00;99.90
8563;DHT22;16392;52.508;13.468;2022-11-02T10:51:14;18.20;77.20
8563;DHT22;16392;52.508;13.468;2022-11-02T10:53:43;18.30;1.00
8563;DHT22;16392;52.508;13.468;2022-11-02T10:56:17;18.60;1.00
8563;DHT22;16392;52.508;13.468;2022-11-02T10:58:49;18.20;1.00
8563;DHT22;16392;52.508;13.468;2022-11-02T11:01:17;18.40;1.00
8563;DHT22;16392;52.508;13.468;2022-11-02T11:03:58;18.30;1.00
8563;DHT22;16392;52.508;13.468;2022-11-02T11:06:28;18.30;1.00
8563;DHT22;16392;52.508;13.468;2022-11-02T11:09:01;18.30;1.00
8563;DHT22;16392;52.508;13.468;2022-11-02T11:11:32;18.30;1.00
8563;DHT22;16392;52.508;13.468;2022-11-02T11:14:02;18.20;1.00
8563;DHT22;16392;52.508;13.468;2022-11-02T11:16:38;17.90;1.00
8563;DHT22;16392;52.508;13.468;2022-11-02T11:19:19;18.20;1.00
8563;DHT22;16392;52.508;13.468;2022-11-02T11:21:47;18.40;99.90
8563;DHT22;16392;52.508;13.468;2022-11-02T11:24:23;18.10;1.00
8563;DHT22;16392;52.508;13.468;2022-11-02T11:27:05;17.70;1.00
8563;DHT22;16392;52.508;13.468;2022-11-02T11:29:40;17.60;1.00
8563;DHT22;16392;52.508;13.468;2022-11-02T11:32:14;17.20;1.00
8563;DHT22;16392;52.508;13.468;2022-11-02T11:34:43;17.00;1.00
8563;DHT22;16392;52.508;13.468;2022-11-02T11:37:13;16.60;11.50
8563;DHT22;16392;52.508;13.468;2022-11-02T11:39:42;16.30;99.90
8563;DHT22;16392;52.508;13.468;2022-11-02T11:42:17;16.30;1.00
8563;DHT22;16392;52.508;13.468;2022-11-02T11:44:47;16.30;1.00
8563;DHT22;16392;52.508;13.468;2022-11-02T11:47:23;16.10;1.00
8563;DHT22;16392;52.508;13.468;2022-11-02T11:49:51;16.20;1.00
8563;DHT22;16392;52.508;13.468;2022-11-02T11:52:20;16.10;1.00
8563;DHT22;16392;52.508;13.468;2022-11-02T11:54:55;16.00;1.00
8563;DHT22;16392;52.508;13.468;2022-11-02T11:57:26;15.90;99.90
8563;DHT22;16392;52.508;13.468;2022-11-02T11:59:54;15.90;1.00
8563;DHT22;16392;52.508;13.468;2022-11-02T12:02:25;16.00;99.90
8563;DHT22;16392;52.508;13.468;2022-11-02T12:05:01;15.90;99.90
8563;DHT22;16392;52.508;13.468;2022-11-02T12:07:54;15.80;99.90
8563;DHT22;16392;52.508;13.468;2022-11-02T12:10:49;15.70;99.90
8563;DHT22;16392;52.508;13.468;2022-11-02T12:13:37;15.70;99.90
8563;DHT22;16392;52.508;13.468;2022-11-02T12:16:13;15.70;99.90
8563;DHT22;16392;52.508;13.468;2022-11-02T12:18:56;15.80;90.90
8563;DHT22;16392;52.508;13.468;2022-11-02T12:21:36;15.70;99.90
8563;DHT22;16392;52.508;13.468;2022-11-02T12:24:19;15.70;99.90
8563;DHT22;16392;52.508;13.468;2022-11-02T12:26:58;15.90;99.90
8563;DHT22;16392;52.508;13.468;2022-11-02T12:33:03;16.10;99.90
8563;DHT22;16392;52.508;13.468;2022-11-02T12:35:41;16.30;1.00
8563;DHT22;16392;52.508;13.468;2022-11-02T12:38:33;16.60;99.90
8563;DHT22;16392;52.508;13.468;2022-11-02T12:41:06;16.90;7.70
8563;DHT22;16392;52.508;13.468;2022-11-02T12:43:40;16.70;1.00
8563;DHT22;16392;52.508;13.468;2022-11-02T12:46:16;16.90;99.90
8563;DHT22;16392;52.508;13.468;2022-11-02T12:48:56;16.90;99.90
8563;DHT22;16392;52.508;13.468;2022-11-02T12:51:26;16.70;99.90
8563;DHT22;16392;52.508;13.468;2022-11-02T12:53:57;16.40;99.90
8563;DHT22;16392;52.508;13.468;2022-11-02T12:56:27;16.50;99.90
8563;DHT22;16392;52.508;13.468;2022-11-02T12:58:55;16.40;22.60
8563;DHT22;16392;52.508;13.468;2022-11-02T13:01:25;16.10;87.10
8563;DHT22;16392;52.508;13.468;2022-11-02T13:03:59;16.20;94.00
8563;DHT22;16392;52.508;13.468;2022-11-02T13:06:31;16.50;70.60
8563;DHT22;16392;52.508;13.468;2022-11-02T13:09:04;16.70;1.00
8563;DHT22;16392;52.508;13.468;2022-11-02T13:11:36;16.70;1.00
8563;DHT22;16392;52.508;13.468;2022-11-02T13:14:08;16.90;1.00
8563;DHT22;16392;52.508;13.468;2022-11-02T13:16:42;16.70;1.00
8563;DHT22;16392;52.508;13.468;2022-11-02T13:19:16;16.60;1.00
8563;DHT22;16392;52.508;13.468;2022-11-02T13:21:48;16.70;1.00
8563;DHT22;16392;52.508;13.468;2022-11-02T13:24:21;16.40;1.00
8563;DHT22;16392;52.508;13.468;2022-11-02T13:26:48;16.20;1.00
8563;DHT22;16392;52.508;13.468;2022-11-02T13:29:20;16.30;1.00
8563;DHT22;16392;52.508;13.468;2022-11-02T13:31:52;16.40;1.00
8563;DHT22;16392;52.508;13.468;2022-11-02T13:34:30;16.30;1.00
8563;DHT22;16392;52.508;13.468;2022-11-02T13:37:03;16.20;1.00
8563;DHT22;16392;52.508;13.468;2022-11-02T13:39:36;16.00;1.00
8563;DHT22;16392;52.508;13.468;2022-11-02T13:42:21;16.00;1.00
8563;DHT22;16392;52.508;13.468;2022-11-02T13:45:11;15.90;1.00
8563;DHT22;16392;52.508;13.468;2022-11-02T13:48:14;15.70;1.00
8563;DHT22;16392;52.508;13.468;2022-11-02T13:50:49;15.70;1.00
8563;DHT22;16392;52.508;13.468;2022-11-02T13:53:18;15.70;1.00
8563;DHT22;16392;52.508;13.468;2022-11-02T13:55:51;15.70;1.00
8563;DHT22;16392;52.508;13.468;2022-11-02T13:58:23;15.70;1.00
8563;DHT22;16392;52.508;13.468;2022-11-02T14:00:51;15.70;1.00
8563;DHT22;16392;52.508;13.468;2022-11-02T14:03:21;15.70;7.30
8563;DHT22;16392;52.508;13.468;2022-11-02T14:05:54;15.70;22.20
8563;DHT22;16392;52.508;13.468;2022-11-02T14:08:32;15.70;25.90
8563;DHT22;16392;52.508;13.468;2022-11-02T14:11:06;15.70;99.90
8563;DHT22;16392;52.508;13.468;2022-11-02T14:14:22;15.60;79.90
8563;DHT22;16392;52.508;13.468;2022-11-02T14:16:57;15.40;99.90
8563;DHT22;16392;52.508;13.468;2022-11-02T14:19:29;15.30;99.90
8563;DHT22;16392;52.508;13.468;2022-11-02T14:22:09;15.20;99.90
8563;DHT22;16392;52.508;13.468;2022-11-02T14:25:15;15.20;99.90
8563;DHT22;16392;52.508;13.468;2022-11-02T14:27:42;15.20;99.90
8563;DHT22;16392;52.508;13.468;2022-11-02T14:30:38;15.20;99.90
8563;DHT22;16392;52.508;13.468;2022-11-02T14:33:11;15.10;99.90
8563;DHT22;16392;52.508;13.468;2022-11-02T14:35:45;15.00;99.90
8563;DHT22;16392;52.508;13.468;2022-11-02T14:38:39;14.90;99.90
8563;DHT22;16392;52.508;13.468;2022-11-02T14:41:26;14.80;1.00
8563;DHT22;16392;52.508;13.468;2022-11-02T14:44:06;14.80;1.00
8563;DHT22;16392;52.508;13.468;2022-11-02T14:46:49;14.70;1.00
8563;DHT22;16392;52.508;13.468;2022-11-02T14:49:20;14.80;1.00
8563;DHT22;16392;52.508;13.468;2022-11-02T14:51:56;14.80;1.00
8563;DHT22;16392;52.508;13.468;2022-11-02T14:54:25;14.80;1.00
8563;DHT22;16392;52.508;13.468;2022-11-02T14:56:57;14.80;1.00
8563;DHT22;16392;52.508;13.468;2022-11-02T14:59:28;14.80;1.00
8563;DHT22;16392;52.508;13.468;2022-11-02T15:01:58;14.70;1.00
8563;DHT22;16392;52.508;13.468;2022-11-02T15:04:25;14.50;1.00
8563;DHT22;16392;52.508;13.468;2022-11-02T15:06:54;14.40;1.00
8563;DHT22;16392;52.508;13.468;2022-11-02T15:09:52;14.40;99.90
8563;DHT22;16392;52.508;13.468;2022-11-02T15:12:27;14.30;99.90
8563;DHT22;16392;52.508;13.468;2022-11-02T15:14:58;14.20;99.90
8563;DHT22;16392;52.508;13.468;2022-11-02T15:17:51;14.10;99.90
8563;DHT22;16392;52.508;13.468;2022-11-02T15:20:24;14.10;1.00
8563;DHT22;16392;52.508;13.468;2022-11-02T15:22:53;13.90;1.00
8563;DHT22;16392;52.508;13.468;2022-11-02T15:25:27;13.90;1.00
8563;DHT22;16392;52.508;13.468;2022-11-02T15:28:01;13.90;1.00
8563;DHT22;16392;52.508;13.468;2022-11-02T15:30:28;13.70;1.00
8563;DHT22;16392;52.508;13.468;2022-11-02T15:32:59;13.70;1.00
8563;DHT22;16392;52.508;13.468;2022-11-02T15:35:29;13.60;1.00
8563;DHT22;16392;52.508;13.468;2022-11-02T15:37:58;13.50;1.00
8563;DHT22;16392;52.508;13.468;2022-11-02T15:40:28;13.50;1.00
8563;DHT22;16392;52.508;13.468;2022-11-02T15:43:03;13.50;1.00
8563;DHT22;16392;52.508;13.468;2022-11-02T15:45:44;13.40;1.00
8563;DHT22;16392;52.508;13.468;2022-11-02T15:48:26;13.40;1.00
8563;DHT22;16392;52.508;13.468;2022-11-02T15:51:01;13.30;1.00
8563;DHT22;16392;52.508;13.468;2022-11-02T15:53:40;13.20;36.40
8563;DHT22;16392;52.508;13.468;2022-11-02T15:56:27;13.10;99.90
8563;DHT22;16392;52.508;13.468;2022-11-02T15:59:40;13.00;99.90
8563;DHT22;16392;52.508;13.468;2022-11-02T16:02:21;12.90;1.00
8563;DHT22;16392;52.508;13.468;2022-11-02T16:04:50;12.80;1.00
8563;DHT22;16392;52.508;13.468;2022-11-02T16:07:18;13.00;99.90
8563;DHT22;16392;52.508;13.468;2022-11-02T16:09:46;12.90;99.90
8563;DHT22;16392;52.508;13.468;2022-11-02T16:12:15;12.90;99.90
8563;DHT22;16392;52.508;13.468;2022-11-02T16:14:50;12.80;1.00